Wetterstation Vordersexau
Wetterdaten: Woche 08.10.18 - 14.10.18 (KW41)
Datum Zeit Temp. A. Feuchte A. Luftdruck Regen Wind Richtung Taupunkt Windchill Windben
08.10.2018 00:00 11,3 C 83 % 1015,9 hPa 0,0 l/m 0,0 km/h SO 8,5 C 11,3 C 0,0 km/h
08.10.2018 01:00 10,8 C 83 % 1016,0 hPa 0,0 l/m 0,0 km/h SO 8,0 C 10,8 C 0,0 km/h
08.10.2018 02:00 10,4 C 83 % 1016,2 hPa 0,0 l/m 0,0 km/h SO 7,6 C 10,4 C 0,0 km/h
08.10.2018 03:00 9,6 C 83 % 1015,8 hPa 0,0 l/m 0,0 km/h SO 6,9 C 9,6 C 0,0 km/h
08.10.2018 04:00 9,1 C 83 % 1016,0 hPa 0,0 l/m 0,0 km/h SO 6,4 C 9,1 C 0,0 km/h
08.10.2018 05:00 9,9 C 83 % 1016,0 hPa 0,0 l/m 0,0 km/h SO 7,2 C 9,9 C 0,0 km/h
08.10.2018 06:00 9,8 C 83 % 1016,3 hPa 0,0 l/m 0,0 km/h N-NO 7,1 C 9,8 C 0,0 km/h
08.10.2018 07:00 9,5 C 83 % 1016,7 hPa 0,0 l/m 0,0 km/h NW 6,8 C 9,5 C 0,0 km/h
08.10.2018 08:00 9,6 C 82 % 1017,3 hPa 0,0 l/m 0,0 km/h W-SW 6,7 C 9,6 C 0,0 km/h
08.10.2018 09:00 9,9 C 81 % 1017,9 hPa 0,0 l/m 0,0 km/h W-SW 6,8 C 9,9 C 0,0 km/h
08.10.2018 10:00 10,1 C 80 % 1018,3 hPa 0,0 l/m 0,0 km/h W-SW 6,8 C 10,1 C 0,0 km/h
08.10.2018 11:00 10,5 C 80 % 1018,3 hPa 0,0 l/m 0,0 km/h W-NW 7,2 C 10,5 C 0,0 km/h
08.10.2018 12:00 10,9 C 81 % 1018,2 hPa 0,0 l/m 0,0 km/h W-SW 7,8 C 10,9 C 0,0 km/h
08.10.2018 13:00 11,8 C 82 % 1018,2 hPa 0,0 l/m 0,0 km/h W 8,8 C 11,8 C 0,0 km/h
08.10.2018 14:00 12,7 C 83 % 1017,7 hPa 0,0 l/m 0,0 km/h SW 9,9 C 12,7 C 0,0 km/h
08.10.2018 15:00 14,7 C 83 % 1017,1 hPa 0,0 l/m 0,0 km/h W 11,8 C 14,7 C 0,0 km/h
08.10.2018 16:00 15,9 C 78 % 1016,8 hPa 0,0 l/m 0,0 km/h W-SW 12,1 C 15,9 C 0,0 km/h
08.10.2018 17:00 16,9 C 75 % 1016,5 hPa 0,0 l/m 0,0 km/h W-SW 12,4 C 16,9 C 0,0 km/h
08.10.2018 18:00 15,5 C 76 % 1017,0 hPa 0,0 l/m 0,0 km/h W-SW 11,3 C 15,5 C 0,0 km/h
08.10.2018 19:00 12,4 C 82 % 1017,6 hPa 0,0 l/m 0,0 km/h W-SW 9,4 C 12,4 C 0,0 km/h
08.10.2018 20:00 11,4 C 83 % 1018,2 hPa 0,0 l/m 0,0 km/h W-SW 8,6 C 11,4 C 0,0 km/h
08.10.2018 21:00 10,7 C 82 % 1018,3 hPa 0,0 l/m 0,0 km/h W-SW 7,8 C 10,7 C 0,0 km/h
08.10.2018 22:00 10,1 C 82 % 1018,8 hPa 0,0 l/m 0,0 km/h NW 7,2 C 10,1 C 0,0 km/h
08.10.2018 23:00 9,6 C 79 % 1019,2 hPa 0,0 l/m 0,0 km/h NW 6,1 C 9,6 C 0,0 km/h
09.10.2018 00:00 9,4 C 78 % 1018,9 hPa 0,0 l/m 0,0 km/h NW 5,8 C 9,4 C 0,0 km/h
09.10.2018 01:00 9,2 C 76 % 1018,5 hPa 0,0 l/m 0,0 km/h NW 5,2 C 9,2 C 0,0 km/h
09.10.2018 02:00 9,3 C 75 % 1018,5 hPa 0,0 l/m 0,0 km/h NW 5,1 C 9,3 C 0,0 km/h
09.10.2018 03:00 8,6 C 76 % 1018,5 hPa 0,0 l/m 0,0 km/h N-NO 4,6 C 8,6 C 0,0 km/h
09.10.2018 04:00 7,8 C 76 % 1018,7 hPa 0,0 l/m 0,0 km/h N-NO 3,8 C 7,8 C 0,0 km/h
09.10.2018 05:00 7,5 C 74 % 1018,7 hPa 0,0 l/m 0,0 km/h N-NO 3,2 C 7,5 C 0,0 km/h
09.10.2018 06:00 7,3 C 74 % 1018,7 hPa 0,0 l/m 0,0 km/h O 3,0 C 7,3 C 0,0 km/h
09.10.2018 07:00 7,3 C 72 % 1019,0 hPa 0,0 l/m 0,0 km/h O-SO 2,6 C 7,3 C 0,0 km/h
09.10.2018 08:00 9,4 C 64 % 1019,2 hPa 0,0 l/m 0,0 km/h O 2,9 C 9,4 C 0,0 km/h
09.10.2018 09:00 13,9 C 83 % 1019,1 hPa 0,0 l/m 0,0 km/h W-NW 11,1 C 13,9 C 0,0 km/h
09.10.2018 10:00 14,4 C 83 % 1019,3 hPa 0,0 l/m 0,0 km/h W-SW 11,5 C 14,4 C 0,0 km/h
09.10.2018 11:00 15,6 C 82 % 1019,1 hPa 0,0 l/m 0,0 km/h W 12,5 C 15,6 C 0,0 km/h
09.10.2018 12:00 17,9 C 77 % 1018,4 hPa 0,0 l/m 0,0 km/h N-NW 13,8 C 17,9 C 0,0 km/h
09.10.2018 13:00 19,8 C 70 % 1018,0 hPa 0,0 l/m 0,0 km/h N-NW 14,2 C 19,8 C 0,0 km/h
09.10.2018 14:00 20,6 C 66 % 1017,5 hPa 0,0 l/m 0,0 km/h W 14,0 C 20,6 C 0,0 km/h
09.10.2018 15:00 20,4 C 65 % 1017,2 hPa 0,0 l/m 0,0 km/h W-NW 13,6 C 20,4 C 0,0 km/h
09.10.2018 16:00 21,1 C 64 % 1016,9 hPa 0,0 l/m 0,0 km/h NW 14,0 C 21,1 C 0,0 km/h
09.10.2018 17:00 20,9 C 64 % 1017,0 hPa 0,0 l/m 0,0 km/h NW 13,8 C 20,9 C 0,0 km/h
09.10.2018 18:00 18,4 C 68 % 1017,4 hPa 0,0 l/m 0,0 km/h NW 12,4 C 18,4 C 0,0 km/h
09.10.2018 19:00 15,5 C 78 % 1017,6 hPa 0,0 l/m 0,0 km/h N-NW 11,7 C 15,5 C 0,0 km/h
09.10.2018 20:00 13,9 C 82 % 1017,8 hPa 0,0 l/m 0,0 km/h N-NW 10,9 C 13,9 C 0,0 km/h
09.10.2018 21:00 12,6 C 83 % 1017,9 hPa 0,0 l/m 0,0 km/h N-NW 9,8 C 12,6 C 0,0 km/h
09.10.2018 22:00 11,8 C 83 % 1017,8 hPa 0,0 l/m 0,0 km/h N-NW 9,0 C 11,8 C 0,0 km/h
09.10.2018 23:00 11,1 C 81 % 1017,6 hPa 0,0 l/m 0,0 km/h N-NW 8,0 C 11,1 C 0,0 km/h
10.10.2018 00:00 10,4 C 80 % 1017,6 hPa 0,0 l/m 0,0 km/h N-NW 7,1 C 10,4 C 0,0 km/h
10.10.2018 01:00 10,2 C 78 % 1017,0 hPa 0,0 l/m 0,0 km/h N 6,5 C 10,2 C 0,0 km/h
10.10.2018 02:00 9,7 C 79 % 1016,8 hPa 0,0 l/m 0,0 km/h N 6,2 C 9,7 C 0,0 km/h
10.10.2018 03:00 9,0 C 77 % 1016,6 hPa 0,0 l/m 0,0 km/h N 5,2 C 9,0 C 0,0 km/h
10.10.2018 04:00 8,8 C 75 % 1016,0 hPa 0,0 l/m 0,0 km/h N 4,6 C 8,8 C 0,0 km/h
10.10.2018 05:00 8,3 C 76 % 1015,8 hPa 0,0 l/m 0,0 km/h N 4,3 C 8,3 C 0,0 km/h
10.10.2018 06:00 7,9 C 76 % 1015,8 hPa 0,0 l/m 0,0 km/h N 3,9 C 7,9 C 0,0 km/h
10.10.2018 07:00 7,6 C 77 % 1015,7 hPa 0,0 l/m 0,0 km/h N 3,8 C 7,6 C 0,0 km/h
10.10.2018 08:00 8,8 C 70 % 1015,8 hPa 0,0 l/m 0,0 km/h N 3,6 C 8,8 C 0,0 km/h
10.10.2018 09:00 12,8 C 80 % 1015,7 hPa 0,0 l/m 0,0 km/h NW 9,4 C 12,8 C 0,0 km/h
10.10.2018 10:00 12,6 C 82 % 1015,4 hPa 0,0 l/m 0,0 km/h W 9,6 C 12,6 C 0,0 km/h
10.10.2018 11:00 13,8 C 82 % 1014,8 hPa 0,0 l/m 0,0 km/h W 10,8 C 13,8 C 0,0 km/h
10.10.2018 12:00 15,1 C 82 % 1014,2 hPa 0,0 l/m 0,0 km/h W 12,0 C 15,1 C 0,0 km/h
10.10.2018 13:00 16,1 C 81 % 1013,2 hPa 0,0 l/m 0,0 km/h NW 12,8 C 16,1 C 0,0 km/h
10.10.2018 14:00 17,6 C 78 % 1012,3 hPa 0,0 l/m 0,0 km/h W 13,7 C 17,6 C 0,0 km/h
10.10.2018 15:00 19,2 C 73 % 1011,7 hPa 0,0 l/m 0,0 km/h NW 14,2 C 19,2 C 0,0 km/h
10.10.2018 16:00 19,3 C 72 % 1011,3 hPa 0,0 l/m 0,0 km/h W-NW 14,1 C 19,3 C 0,0 km/h
10.10.2018 17:00 19,1 C 71 % 1010,9 hPa 0,0 l/m 0,0 km/h W-NW 13,7 C 19,1 C 0,0 km/h
10.10.2018 18:00 16,8 C 74 % 1010,9 hPa 0,0 l/m 0,0 km/h W-NW 12,1 C 16,8 C 0,0 km/h
10.10.2018 19:00 13,9 C 80 % 1011,1 hPa 0,0 l/m 0,0 km/h NW 10,5 C 13,9 C 0,0 km/h
10.10.2018 20:00 12,1 C 83 % 1011,0 hPa 0,0 l/m 0,0 km/h N-NW 9,3 C 12,1 C 0,0 km/h
10.10.2018 21:00 11,4 C 83 % 1010,8 hPa 0,0 l/m 0,0 km/h N-NW 8,6 C 11,4 C 0,0 km/h
10.10.2018 22:00 10,8 C 80 % 1010,5 hPa 0,0 l/m 0,0 km/h N-NW 7,5 C 10,8 C 0,0 km/h
10.10.2018 23:00 9,8 C 80 % 1010,8 hPa 0,0 l/m 0,0 km/h N 6,5 C 9,8 C 0,0 km/h
11.10.2018 00:00 9,6 C 78 % 1010,9 hPa 0,0 l/m 0,0 km/h N-NO 6,0 C 9,6 C 0,0 km/h
11.10.2018 01:00 9,9 C 76 % 1010,6 hPa 0,0 l/m 0,0 km/h N-NO 5,9 C 9,9 C 0,0 km/h
11.10.2018 02:00 9,2 C 76 % 1010,6 hPa 0,0 l/m 0,0 km/h N-NO 5,2 C 9,2 C 0,0 km/h
11.10.2018 03:00 8,8 C 76 % 1010,6 hPa 0,0 l/m 0,0 km/h N-NO 4,8 C 8,8 C 0,0 km/h
11.10.2018 04:00 8,2 C 75 % 1010,6 hPa 0,0 l/m 0,0 km/h N-NO 4,0 C 8,2 C 0,0 km/h
11.10.2018 05:00 8,1 C 75 % 1011,1 hPa 0,0 l/m 0,0 km/h N-NO 3,9 C 8,1 C 0,0 km/h
11.10.2018 06:00 7,9 C 73 % 1011,6 hPa 0,0 l/m 0,0 km/h O 3,4 C 7,9 C 0,0 km/h
11.10.2018 07:00 8,1 C 72 % 1012,1 hPa 0,0 l/m 0,0 km/h O-SO 3,4 C 8,1 C 0,0 km/h
11.10.2018 08:00 9,6 C 67 % 1012,3 hPa 0,0 l/m 0,0 km/h SO 3,8 C 9,6 C 0,0 km/h
11.10.2018 09:00 13,3 C 80 % 1012,7 hPa 0,0 l/m 0,0 km/h W-SW 9,9 C 13,3 C 0,0 km/h
11.10.2018 10:00 13,5 C 83 % 1013,2 hPa 0,0 l/m 0,0 km/h W 10,7 C 13,5 C 0,0 km/h
11.10.2018 11:00 13,8 C 83 % 1012,9 hPa 0,0 l/m 0,0 km/h S-SO 11,0 C 13,8 C 0,0 km/h
11.10.2018 12:00 14,9 C 83 % 1012,6 hPa 0,0 l/m 0,0 km/h SO 12,0 C 14,9 C 0,0 km/h
11.10.2018 13:00 15,8 C 82 % 1011,7 hPa 0,0 l/m 0,0 km/h NW 12,7 C 15,8 C 0,0 km/h
11.10.2018 14:00 16,3 C 81 % 1011,8 hPa 0,0 l/m 0,0 km/h S-SW 13,0 C 16,3 C 0,0 km/h
11.10.2018 15:00 16,9 C 80 % 1012,6 hPa 0,0 l/m 0,0 km/h SO 13,4 C 16,9 C 0,0 km/h
11.10.2018 16:00 17,5 C 78 % 1012,4 hPa 0,0 l/m 0,0 km/h O-SO 13,6 C 17,5 C 0,0 km/h
11.10.2018 17:00 18,9 C 74 % 1011,9 hPa 0,0 l/m 0,0 km/h O-SO 14,2 C 18,9 C 0,0 km/h
11.10.2018 18:00 16,9 C 77 % 1012,7 hPa 0,0 l/m 0,0 km/h O-SO 12,8 C 16,9 C 0,0 km/h
11.10.2018 19:00 14,1 C 82 % 1012,9 hPa 0,0 l/m 0,0 km/h O-SO 11,1 C 14,1 C 0,0 km/h
11.10.2018 20:00 12,5 C 83 % 1013,4 hPa 0,0 l/m 0,0 km/h O-NO 9,7 C 12,5 C 0,0 km/h
11.10.2018 21:00 12,6 C 81 % 1013,9 hPa 0,0 l/m 0,0 km/h O-NO 9,4 C 12,6 C 0,0 km/h
11.10.2018 22:00 12,1 C 82 % 1014,9 hPa 0,0 l/m 0,0 km/h O-NO 9,1 C 12,1 C 0,0 km/h
11.10.2018 23:00 11,9 C 80 % 1015,3 hPa 0,0 l/m 0,0 km/h SO 8,6 C 11,9 C 0,0 km/h
12.10.2018 00:00 11,9 C 82 % 1015,4 hPa 0,0 l/m 0,0 km/h SO 8,9 C 11,9 C 0,0 km/h
12.10.2018 01:00 11,7 C 83 % 1016,1 hPa 0,0 l/m 0,0 km/h O-NO 8,9 C 11,7 C 0,0 km/h
12.10.2018 02:00 11,0 C 83 % 1016,7 hPa 0,0 l/m 0,0 km/h O-NO 8,2 C 11,0 C 0,0 km/h
12.10.2018 03:00 11,1 C 82 % 1016,8 hPa 0,0 l/m 0,0 km/h SO 8,1 C 11,1 C 0,0 km/h
12.10.2018 04:00 11,1 C 83 % 1017,0 hPa 0,0 l/m 0,0 km/h O 8,3 C 11,1 C 0,0 km/h
12.10.2018 05:00 11,1 C 83 % 1017,6 hPa 0,0 l/m 0,0 km/h SO 8,3 C 11,1 C 0,0 km/h
12.10.2018 06:00 11,1 C 83 % 1018,2 hPa 0,0 l/m 0,0 km/h O-NO 8,3 C 11,1 C 0,0 km/h
12.10.2018 07:00 11,4 C 83 % 1018,8 hPa 0,0 l/m 0,0 km/h O-NO 8,6 C 11,4 C 0,0 km/h
12.10.2018 08:00 11,6 C 83 % 1019,6 hPa 0,0 l/m 0,0 km/h O-NO 8,8 C 11,6 C 0,0 km/h
12.10.2018 09:00 16,8 C 77 % 1019,9 hPa 0,0 l/m 0,0 km/h O-NO 12,7 C 16,8 C 0,0 km/h
12.10.2018 10:00 18,8 C 74 % 1020,0 hPa 0,0 l/m 0,0 km/h NW 14,1 C 18,8 C 0,0 km/h
12.10.2018 11:00 20,9 C 70 % 1020,2 hPa 0,0 l/m 0,0 km/h W-SW 15,2 C 20,9 C 0,0 km/h
12.10.2018 12:00 22,9 C 64 % 1020,0 hPa 0,0 l/m 0,0 km/h W-NW 15,7 C 22,9 C 0,0 km/h
12.10.2018 13:00 24,3 C 55 % 1019,5 hPa 0,0 l/m 0,0 km/h W-SW 14,7 C 24,3 C 0,0 km/h
12.10.2018 14:00 25,6 C 50 % 1019,0 hPa 0,0 l/m 0,0 km/h SW 14,4 C 25,6 C 0,0 km/h
12.10.2018 15:00 26,4 C 47 % 1019,0 hPa 0,0 l/m 0,0 km/h N-NW 14,2 C 26,4 C 0,0 km/h
12.10.2018 16:00 25,7 C 44 % 1018,9 hPa 0,0 l/m 0,0 km/h N 12,5 C 25,7 C 0,0 km/h
12.10.2018 17:00 25,5 C 49 % 1019,0 hPa 0,0 l/m 0,0 km/h O-SO 14,0 C 25,5 C 0,0 km/h
12.10.2018 18:00 21,6 C 57 % 1019,6 hPa 0,0 l/m 0,0 km/h O-NO 12,7 C 21,6 C 0,0 km/h
12.10.2018 19:00 18,5 C 68 % 1020,1 hPa 0,0 l/m 0,0 km/h SO 12,5 C 18,5 C 0,0 km/h
12.10.2018 20:00 17,2 C 71 % 1020,2 hPa 0,0 l/m 0,0 km/h O-SO 11,9 C 17,2 C 0,0 km/h
12.10.2018 21:00 16,1 C 74 % 1020,6 hPa 0,0 l/m 0,0 km/h O-SO 11,5 C 16,1 C 0,0 km/h
12.10.2018 22:00 15,8 C 73 % 1020,7 hPa 0,0 l/m 0,0 km/h O-SO 11,0 C 15,8 C 0,0 km/h
12.10.2018 23:00 15,0 C 74 % 1020,8 hPa 0,0 l/m 0,0 km/h O 10,4 C 15,0 C 0,0 km/h
13.10.2018 00:00 13,1 C 78 % 1020,3 hPa 0,0 l/m 0,0 km/h O-NO 9,4 C 13,1 C 0,0 km/h
13.10.2018 01:00 11,8 C 81 % 1020,4 hPa 0,0 l/m 0,0 km/h O-NO 8,6 C 11,8 C 0,0 km/h
13.10.2018 02:00 11,6 C 83 % 1020,4 hPa 0,0 l/m 0,0 km/h O-NO 8,8 C 11,6 C 0,0 km/h
13.10.2018 03:00 11,9 C 83 % 1020,4 hPa 0,0 l/m 0,0 km/h O-NO 9,1 C 11,9 C 0,0 km/h
13.10.2018 04:00 11,3 C 83 % 1020,3 hPa 0,0 l/m 0,0 km/h O-NO 8,5 C 11,3 C 0,0 km/h
13.10.2018 05:00 11,2 C 83 % 1020,0 hPa 0,0 l/m 0,0 km/h O-NO 8,4 C 11,2 C 0,0 km/h
13.10.2018 06:00 10,7 C 83 % 1019,9 hPa 0,0 l/m 0,0 km/h O 7,9 C 10,7 C 0,0 km/h
13.10.2018 07:00 10,1 C 83 % 1020,1 hPa 0,0 l/m 0,0 km/h O 7,3 C 10,1 C 0,0 km/h
13.10.2018 08:00 10,5 C 82 % 1020,0 hPa 0,0 l/m 0,0 km/h O 7,6 C 10,5 C 0,0 km/h
13.10.2018 09:00 16,8 C 76 % 1019,8 hPa 0,0 l/m 0,0 km/h W 12,5 C 16,8 C 0,0 km/h
13.10.2018 10:00 17,1 C 74 % 1019,5 hPa 0,0 l/m 0,0 km/h W 12,4 C 17,1 C 0,0 km/h
13.10.2018 11:00 19,2 C 69 % 1018,8 hPa 0,0 l/m 0,0 km/h W 13,4 C 19,2 C 0,0 km/h
13.10.2018 12:00 21,4 C 63 % 1017,8 hPa 0,0 l/m 0,0 km/h SW 14,1 C 21,4 C 0,0 km/h
13.10.2018 13:00 22,5 C 60 % 1017,1 hPa 0,0 l/m 0,0 km/h SW 14,3 C 22,5 C 0,0 km/h
13.10.2018 14:00 23,6 C 57 % 1016,4 hPa 0,0 l/m 0,0 km/h S-SW 14,6 C 23,6 C 0,0 km/h
13.10.2018 15:00 24,4 C 55 % 1015,8 hPa 0,0 l/m 0,0 km/h S 14,8 C 24,4 C 0,0 km/h
13.10.2018 16:00 24,9 C 52 % 1015,0 hPa 0,0 l/m 0,0 km/h S 14,4 C 24,9 C 0,0 km/h
13.10.2018 17:00 25,1 C 51 % 1014,7 hPa 0,0 l/m 0,0 km/h S 14,2 C 25,1 C 0,0 km/h
13.10.2018 18:00 20,7 C 61 % 1014,6 hPa 0,0 l/m 0,0 km/h SO 12,9 C 20,7 C 0,0 km/h
13.10.2018 19:00 17,6 C 69 % 1014,4 hPa 0,0 l/m 0,0 km/h O 11,8 C 17,6 C 0,0 km/h
13.10.2018 20:00 15,6 C 76 % 1014,4 hPa 0,0 l/m 0,0 km/h O 11,4 C 15,6 C 0,0 km/h
13.10.2018 21:00 14,6 C 79 % 1014,0 hPa 0,0 l/m 0,0 km/h O 11,0 C 14,6 C 0,0 km/h
13.10.2018 22:00 14,4 C 80 % 1013,9 hPa 0,0 l/m 0,0 km/h O-SO 11,0 C 14,4 C 0,0 km/h
13.10.2018 23:00 14,1 C 80 % 1013,6 hPa 0,0 l/m 0,0 km/h O-NO 10,7 C 14,1 C 0,0 km/h
14.10.2018 00:00 13,0 C 81 % 1013,7 hPa 0,0 l/m 0,0 km/h O-NO 9,8 C 13,0 C 0,0 km/h
14.10.2018 01:00 11,8 C 83 % 1013,4 hPa 0,0 l/m 0,0 km/h O-NO 9,0 C 11,8 C 0,0 km/h
14.10.2018 02:00 11,8 C 83 % 1013,2 hPa 0,0 l/m 0,0 km/h O-NO 9,0 C 11,8 C 0,0 km/h
14.10.2018 03:00 11,5 C 83 % 1012,7 hPa 0,0 l/m 0,0 km/h O-NO 8,7 C 11,5 C 0,0 km/h
14.10.2018 04:00 11,4 C 83 % 1012,2 hPa 0,0 l/m 0,0 km/h O-NO 8,6 C 11,4 C 0,0 km/h
14.10.2018 05:00 10,4 C 83 % 1011,9 hPa 0,0 l/m 0,0 km/h O-NO 7,6 C 10,4 C 0,0 km/h
14.10.2018 06:00 10,1 C 83 % 1011,7 hPa 0,0 l/m 0,0 km/h O-NO 7,3 C 10,1 C 0,0 km/h
14.10.2018 07:00 9,2 C 82 % 1010,9 hPa 0,0 l/m 0,0 km/h O-NO 6,3 C 9,2 C 0,0 km/h
14.10.2018 08:00 10,1 C 77 % 1010,9 hPa 0,0 l/m 0,0 km/h O 6,3 C 10,1 C 0,0 km/h
14.10.2018 09:00 15,9 C 76 % 1010,8 hPa 0,0 l/m 0,0 km/h NW 11,7 C 15,9 C 0,0 km/h
14.10.2018 10:00 16,4 C 77 % 1010,8 hPa 0,0 l/m 0,0 km/h NW 12,4 C 16,4 C 0,0 km/h
14.10.2018 11:00 19,1 C 71 % 1010,3 hPa 0,0 l/m 0,0 km/h W 13,7 C 19,1 C 0,0 km/h
14.10.2018 12:00 21,1 C 65 % 1009,7 hPa 0,0 l/m 0,0 km/h SW 14,3 C 21,1 C 0,0 km/h
14.10.2018 13:00 22,6 C 61 % 1009,0 hPa 0,0 l/m 0,0 km/h SW 14,7 C 22,6 C 0,0 km/h
14.10.2018 14:00 23,9 C 57 % 1008,5 hPa 0,0 l/m 0,0 km/h S 14,9 C 23,9 C 0,0 km/h
14.10.2018 15:00 25,1 C 52 % 1008,1 hPa 0,0 l/m 0,0 km/h S-SO 14,5 C 25,1 C 0,0 km/h
14.10.2018 16:00 25,4 C 49 % 1008,0 hPa 0,0 l/m 0,0 km/h S-SO 13,9 C 25,4 C 0,0 km/h
14.10.2018 17:00 25,4 C 48 % 1007,9 hPa 0,0 l/m 0,0 km/h SO 13,6 C 25,4 C 0,0 km/h
14.10.2018 18:00 20,2 C 55 % 1008,1 hPa 0,0 l/m 0,0 km/h O-SO 10,9 C 20,2 C 0,0 km/h
14.10.2018 19:00 17,0 C 63 % 1008,4 hPa 0,0 l/m 0,0 km/h O-NO 9,9 C 17,0 C 0,0 km/h
14.10.2018 20:00 15,4 C 67 % 1008,2 hPa 0,0 l/m 0,0 km/h O 9,3 C 15,4 C 0,0 km/h
14.10.2018 21:00 14,1 C 68 % 1008,4 hPa 0,0 l/m 0,0 km/h O 8,3 C 14,1 C 0,0 km/h
14.10.2018 22:00 12,6 C 71 % 1008,9 hPa 0,0 l/m 0,0 km/h O-NO 7,5 C 12,6 C 0,0 km/h
14.10.2018 23:00 11,4 C 73 % 1009,4 hPa 0,0 l/m 0,0 km/h O-NO 6,7 C 11,4 C 0,0 km/h
Min-Datum _ 09.10.18 12.10.18 14.10.18 - 08.10.18 - 09.10.18 09.10.18 08.10.18
_ Min-Zeit 06:53 16:53 17:53 - 00:53 - 07:53 06:53 00:53
Minimum _ 7,3 C 44 % 1007,9 hPa - 0,0 km/h - 2,6 C 7,3 C 0,0 km/h
Max-Datum _ 12.10.18 08.10.18 12.10.18 08.10.18 08.10.18 - 12.10.18 12.10.18 08.10.18
_ Max-Zeit 15:53 00:53 23:53 00:53 00:53 - 12:53 15:53 00:53
Maximum _ 26,4 C 83 % 1020,8 hPa 0,0 l/m 0,0 km/h
SO
- 15,7 C 26,4 C 0,0 km/h
SO
Durchschnitt _ 14,2 C 75 % 1015,5 hPa #0,0 l/m 0,0 km/h O-NO 9,7 C 14,2 C 0,0 km/h
www.sexauwetter.de